Time;durP1;ratioP1;P1;durP2;ratioP2;P2;SDS_P1;SDS_P2;PMS_P1;PMS_P2;Temp;Humidity;BMP_temperature;BMP_pressure;BME280_temperature;BME280_humidity;BME280_pressure;Samples;Min_cycle;Max_cycle;Signal;HPM_P1;HPM_P2
2021/09/22 00:02:04;;;;;;;7.77;3.57;;;12.20;99.90;;;;;;5054649;28;20098;-85
2021/09/22 00:04:30;;;;;;;8.03;3.83;;;12.20;99.90;;;;;;5054987;28;20024;-85
2021/09/22 00:06:55;;;;;;;5.73;3.40;;;12.10;99.90;;;;;;5072611;28;20028;-85
2021/09/22 00:09:21;;;;;;;7.37;3.67;;;12.10;99.90;;;;;;5054118;28;20021;-86
2021/09/22 00:11:47;;;;;;;6.93;3.30;;;12.10;99.90;;;;;;5054603;28;20087;-85
2021/09/22 00:14:12;;;;;;;6.37;3.40;;;12.10;99.90;;;;;;5054439;28;20085;-85
2021/09/22 00:16:38;;;;;;;6.07;3.73;;;12.00;99.90;;;;;;5054600;28;20063;-85
2021/09/22 00:19:03;;;;;;;7.17;3.73;;;12.00;99.90;;;;;;5071704;28;20043;-86
2021/09/22 00:21:29;;;;;;;6.83;3.30;;;12.00;99.90;;;;;;5054541;28;20028;-86
2021/09/22 00:23:55;;;;;;;7.57;4.10;;;12.00;99.90;;;;;;5054551;28;20036;-85
2021/09/22 00:26:22;;;;;;;7.23;3.70;;;12.10;99.90;;;;;;5071981;28;20089;-85
2021/09/22 00:28:47;;;;;;;6.80;3.83;;;12.00;99.90;;;;;;5072083;28;20020;-84
2021/09/22 00:31:13;;;;;;;7.07;3.57;;;12.00;99.90;;;;;;5053844;28;20034;-85
2021/09/22 00:33:39;;;;;;;8.97;4.00;;;12.00;99.90;;;;;;5054434;28;20647;-86
2021/09/22 00:36:06;;;;;;;6.80;3.60;;;12.00;99.90;;;;;;5054452;28;20020;-85
2021/09/22 00:38:31;;;;;;;8.10;3.63;;;11.90;99.90;;;;;;5054194;28;20028;-85
2021/09/22 00:40:57;;;;;;;7.47;3.73;;;12.00;99.90;;;;;;5071930;28;20020;-86
2021/09/22 00:43:23;;;;;;;5.77;3.40;;;12.00;99.90;;;;;;5054199;28;20039;-85
2021/09/22 00:45:48;;;;;;;6.90;4.03;;;12.00;99.90;;;;;;5054239;28;20028;-85
2021/09/22 00:48:14;;;;;;;6.50;3.80;;;12.00;99.90;;;;;;5054205;28;20047;-85
2021/09/22 00:50:40;;;;;;;6.83;3.77;;;11.90;99.90;;;;;;5053513;28;20033;-86
2021/09/22 00:53:05;;;;;;;7.07;3.90;;;11.90;99.90;;;;;;5072092;28;20032;-86
2021/09/22 00:55:31;;;;;;;7.27;4.07;;;11.90;99.90;;;;;;5054127;28;20481;-85
2021/09/22 00:57:59;;;;;;;6.50;3.57;;;11.80;99.90;;;;;;5072053;28;20465;-85
2021/09/22 01:00:26;;;;;;;7.23;4.00;;;11.80;99.90;;;;;;5053680;28;20056;-85
2021/09/22 01:02:53;;;;;;;9.63;3.90;;;11.80;99.90;;;;;;5054036;28;20456;-85
2021/09/22 01:05:21;;;;;;;6.93;3.87;;;11.70;99.90;;;;;;5054147;28;20035;-85
2021/09/22 01:07:47;;;;;;;9.15;4.00;;;11.70;99.90;;;;;;5056212;28;20130;-85
2021/09/22 01:10:14;;;;;;;7.57;4.07;;;11.70;99.90;;;;;;5075559;28;20071;-85
2021/09/22 01:12:40;;;;;;;9.73;4.13;;;11.70;99.90;;;;;;5054128;28;20119;-85
2021/09/22 01:15:06;;;;;;;8.97;3.90;;;11.70;99.90;;;;;;5053915;28;20029;-85
2021/09/22 01:17:32;;;;;;;7.17;4.30;;;11.70;99.90;;;;;;5071860;28;20381;-85
2021/09/22 01:20:07;;;;;;;7.33;4.10;;;11.70;99.90;;;;;;5071229;28;20024;-85
2021/09/22 01:22:33;;;;;;;6.23;3.90;;;11.70;99.90;;;;;;5053776;28;20035;-86
2021/09/22 01:24:59;;;;;;;8.33;4.03;;;11.70;99.90;;;;;;5053795;28;20028;-86
2021/09/22 01:27:26;;;;;;;6.20;3.80;;;11.60;99.90;;;;;;5071694;28;20029;-86
2021/09/22 01:29:53;;;;;;;7.17;3.93;;;11.60;99.90;;;;;;5071238;28;20021;-85
2021/09/22 01:32:19;;;;;;;6.73;3.63;;;11.60;99.90;;;;;;5071580;28;20086;-85
2021/09/22 01:34:45;;;;;;;7.03;3.70;;;11.60;99.90;;;;;;5053576;28;20086;-85
2021/09/22 01:37:11;;;;;;;6.33;3.80;;;11.60;99.90;;;;;;5053739;28;20432;-86
2021/09/22 01:39:42;;;;;;;7.07;3.33;;;11.60;99.90;;;;;;5073350;28;20114;-86
2021/09/22 01:42:09;;;;;;;6.67;3.80;;;11.60;99.90;;;;;;5057506;28;20021;-86
2021/09/22 01:44:35;;;;;;;6.80;4.07;;;11.60;99.90;;;;;;5075475;28;20032;-85
2021/09/22 01:47:01;;;;;;;7.00;3.80;;;11.60;99.90;;;;;;5075413;28;20412;-85
2021/09/22 01:49:27;;;;;;;6.70;3.90;;;11.60;99.90;;;;;;5056697;28;20043;-85
2021/09/22 01:52:01;;;;;;;8.50;3.90;;;11.60;99.90;;;;;;5075241;28;20025;-85
2021/09/22 01:54:27;;;;;;;7.50;4.03;;;11.60;99.90;;;;;;5075119;28;20025;-85
2021/09/22 01:56:53;;;;;;;7.13;4.40;;;11.50;99.90;;;;;;5075019;28;20029;-85
2021/09/22 01:59:18;;;;;;;7.53;4.33;;;11.50;99.90;;;;;;5056669;28;20384;-85
2021/09/22 02:01:44;;;;;;;8.97;4.67;;;11.50;99.90;;;;;;5057219;28;20039;-85
2021/09/22 02:04:10;;;;;;;8.20;5.17;;;11.50;99.90;;;;;;5057281;28;20033;-86
2021/09/22 02:06:36;;;;;;;7.77;4.53;;;11.50;99.90;;;;;;5057334;28;20098;-85
2021/09/22 02:09:02;;;;;;;9.00;4.83;;;11.50;99.90;;;;;;5074314;28;20473;-85
2021/09/22 02:11:27;;;;;;;9.10;4.90;;;11.40;99.90;;;;;;5056978;28;20052;-85
2021/09/22 02:13:53;;;;;;;10.07;5.30;;;11.40;99.90;;;;;;5056837;28;20063;-86
2021/09/22 02:16:19;;;;;;;10.70;4.80;;;11.40;99.90;;;;;;5074850;28;20024;-86
2021/09/22 02:18:44;;;;;;;10.10;5.73;;;11.40;99.90;;;;;;5056778;28;20031;-85
2021/09/22 02:21:10;;;;;;;9.27;5.17;;;11.40;99.90;;;;;;5055911;28;20295;-85
2021/09/22 02:23:38;;;;;;;10.63;6.00;;;11.30;99.90;;;;;;5055804;28;20477;-85
2021/09/22 02:26:05;;;;;;;8.73;4.90;;;11.40;99.90;;;;;;5056525;28;20082;-85
2021/09/22 02:28:31;;;;;;;9.33;4.83;;;11.40;99.90;;;;;;5056596;28;20024;-86
2021/09/22 02:30:57;;;;;;;9.07;5.00;;;11.40;99.90;;;;;;5056030;28;20469;-86
2021/09/22 02:33:22;;;;;;;10.40;4.93;;;11.40;99.90;;;;;;5074253;28;20036;-86
2021/09/22 02:35:48;;;;;;;11.60;5.90;;;11.40;99.90;;;;;;5056584;28;20032;-86
2021/09/22 02:38:14;;;;;;;11.20;5.77;;;11.40;99.90;;;;;;5056519;28;20068;-85
2021/09/22 02:40:40;;;;;;;8.80;5.20;;;11.40;99.90;;;;;;5055857;28;20073;-86
2021/09/22 02:43:05;;;;;;;10.07;5.03;;;11.40;99.90;;;;;;5074143;28;20090;-85
2021/09/22 02:45:31;;;;;;;10.50;5.20;;;11.40;99.90;;;;;;5056357;28;20033;-84
2021/09/22 02:47:57;;;;;;;10.23;5.23;;;11.40;99.90;;;;;;5074034;28;20038;-85
2021/09/22 02:50:23;;;;;;;12.17;5.53;;;11.40;99.90;;;;;;5055674;28;20123;-86
2021/09/22 02:52:49;;;;;;;11.57;6.00;;;11.30;99.90;;;;;;5056215;28;20051;-86
2021/09/22 02:55:15;;;;;;;13.20;6.03;;;11.30;99.90;;;;;;5056073;28;20082;-86
2021/09/22 02:57:41;;;;;;;10.17;5.33;;;11.30;99.90;;;;;;5056284;28;20460;-86
2021/09/22 03:00:08;;;;;;;10.63;6.10;;;11.20;99.90;;;;;;5055456;28;20052;-86
2021/09/22 03:02:34;;;;;;;9.93;5.90;;;11.30;99.90;;;;;;5073828;28;20074;-85
2021/09/22 03:05:00;;;;;;;11.93;6.80;;;11.30;99.90;;;;;;5073835;28;20028;-85
2021/09/22 03:07:25;;;;;;;11.87;6.00;;;11.20;99.90;;;;;;5055690;28;20028;-86
2021/09/22 03:09:51;;;;;;;10.73;5.40;;;11.30;99.90;;;;;;5055430;28;20064;-85
2021/09/22 03:12:17;;;;;;;11.23;6.10;;;11.30;99.90;;;;;;5055844;28;20119;-85
2021/09/22 03:14:42;;;;;;;13.43;6.10;;;11.30;99.90;;;;;;5055636;28;20028;-86
2021/09/22 03:17:08;;;;;;;9.83;5.33;;;11.30;99.90;;;;;;5073850;28;20024;-84
2021/09/22 03:19:33;;;;;;;9.30;5.63;;;11.20;99.90;;;;;;5072850;28;20064;-85
2021/09/22 03:21:59;;;;;;;10.97;5.50;;;11.20;99.90;;;;;;5055756;28;20025;-86
2021/09/22 03:24:25;;;;;;;9.83;5.70;;;11.20;99.90;;;;;;5073438;28;20028;-86
2021/09/22 03:26:51;;;;;;;13.87;6.60;;;11.20;99.90;;;;;;5055529;28;20024;-85
2021/09/22 03:29:16;;;;;;;11.77;6.23;;;11.20;99.90;;;;;;5072694;28;20430;-85
2021/09/22 03:31:43;;;;;;;12.03;6.53;;;11.20;99.90;;;;;;5073204;28;20048;-85
2021/09/22 03:34:09;;;;;;;13.93;7.53;;;11.20;99.90;;;;;;5055523;28;20024;-85
2021/09/22 03:36:34;;;;;;;12.17;6.13;;;11.30;99.90;;;;;;5055310;28;20027;-85
2021/09/22 03:39:00;;;;;;;11.47;5.83;;;11.20;99.90;;;;;;5054888;28;20400;-85
2021/09/22 03:41:26;;;;;;;10.37;5.60;;;11.20;99.90;;;;;;5055254;28;20081;-85
2021/09/22 03:43:52;;;;;;;9.57;6.03;;;11.30;99.90;;;;;;5055260;28;20123;-86
2021/09/22 03:46:17;;;;;;;9.80;6.00;;;11.20;99.90;;;;;;5073152;28;20523;-86
2021/09/22 03:48:43;;;;;;;12.20;6.20;;;11.20;99.90;;;;;;5072841;28;20119;-85
2021/09/22 03:51:08;;;;;;;12.13;5.93;;;11.20;99.90;;;;;;5054586;28;20033;-86
2021/09/22 03:53:34;;;;;;;13.03;6.07;;;11.20;99.90;;;;;;5055036;28;20028;-86
2021/09/22 03:56:00;;;;;;;14.87;6.70;;;11.30;99.90;;;;;;5055148;28;20056;-86
2021/09/22 03:58:26;;;;;;;11.90;6.27;;;11.30;99.90;;;;;;5055281;28;20032;-85
2021/09/22 04:00:52;;;;;;;13.47;6.40;;;11.20;99.90;;;;;;5054475;28;20024;-85
2021/09/22 04:03:17;;;;;;;12.70;6.73;;;11.20;99.90;;;;;;5054583;28;20033;-86
2021/09/22 04:05:43;;;;;;;12.83;6.47;;;11.20;99.90;;;;;;5072588;28;20384;-85
2021/09/22 04:08:09;;;;;;;11.10;6.60;;;11.20;99.90;;;;;;5054765;28;20024;-86
2021/09/22 04:10:35;;;;;;;13.50;7.03;;;11.20;99.90;;;;;;5054250;28;20295;-86
2021/09/22 04:13:00;;;;;;;11.53;6.37;;;11.20;99.90;;;;;;5054623;28;20071;-85
2021/09/22 04:15:26;;;;;;;12.23;7.23;;;11.20;99.90;;;;;;5054921;28;20178;-85
2021/09/22 04:17:52;;;;;;;12.40;7.20;;;11.20;99.90;;;;;;5072469;28;20021;-85
2021/09/22 04:20:17;;;;;;;11.50;6.30;;;11.20;99.90;;;;;;5071938;28;20024;-86
2021/09/22 04:22:43;;;;;;;12.57;6.77;;;11.20;99.90;;;;;;5054460;28;20106;-86
2021/09/22 04:25:10;;;;;;;13.00;6.83;;;11.20;99.90;;;;;;5054670;28;20524;-85
2021/09/22 04:27:36;;;;;;;11.50;6.57;;;11.20;99.90;;;;;;5072496;28;20029;-85
2021/09/22 04:30:04;;;;;;;14.00;6.83;;;11.20;99.90;;;;;;5053802;28;20115;-85
2021/09/22 04:32:29;;;;;;;11.20;7.10;;;11.20;99.90;;;;;;5054536;28;20021;-85
2021/09/22 04:34:55;;;;;;;11.70;6.77;;;11.30;99.90;;;;;;5072308;28;20039;-86
2021/09/22 04:37:21;;;;;;;12.30;6.57;;;11.20;99.90;;;;;;5072384;28;20062;-85
2021/09/22 04:39:47;;;;;;;13.10;7.20;;;11.30;99.90;;;;;;5053632;28;20054;-85
2021/09/22 04:42:13;;;;;;;12.30;6.93;;;11.30;99.90;;;;;;5054135;28;20021;-85
2021/09/22 04:44:38;;;;;;;12.63;7.10;;;11.30;99.90;;;;;;5054399;28;20031;-86
2021/09/22 04:47:05;;;;;;;15.30;7.70;;;11.30;99.90;;;;;;5054229;28;20115;-86
2021/09/22 04:49:31;;;;;;;13.10;7.47;;;11.30;99.90;;;;;;5053403;28;20032;-85
2021/09/22 04:51:57;;;;;;;13.57;7.50;;;11.30;99.90;;;;;;5071940;28;20028;-85
2021/09/22 04:54:22;;;;;;;12.90;7.93;;;11.30;99.90;;;;;;5071833;28;20032;-85
2021/09/22 04:56:48;;;;;;;11.63;7.70;;;11.30;99.90;;;;;;5054181;28;20016;-85
2021/09/22 04:59:14;;;;;;;16.27;8.37;;;11.30;99.90;;;;;;5071499;28;20673;-85
2021/09/22 05:01:39;;;;;;;14.83;7.30;;;11.30;99.90;;;;;;5054083;28;20025;-85
2021/09/22 05:04:06;;;;;;;17.97;8.03;;;11.30;99.90;;;;;;5054007;28;20034;-85
2021/09/22 05:06:34;;;;;;;18.00;8.03;;;11.30;99.90;;;;;;5054001;28;20060;-85
2021/09/22 05:09:00;;;;;;;13.73;7.60;;;11.30;99.90;;;;;;5053426;28;20020;-85
2021/09/22 05:11:26;;;;;;;15.53;7.50;;;11.30;99.90;;;;;;5054123;28;20028;-85
2021/09/22 05:13:52;;;;;;;15.33;8.53;;;11.30;99.90;;;;;;5072808;28;20033;-85
2021/09/22 05:16:17;;;;;;;14.33;7.90;;;11.30;99.90;;;;;;5058223;28;20066;-85
2021/09/22 05:18:43;;;;;;;20.73;10.10;;;11.30;99.90;;;;;;5058158;28;20044;-85
2021/09/22 05:21:09;;;;;;;15.97;8.27;;;11.30;99.90;;;;;;5075543;28;20465;-85
2021/09/22 05:23:34;;;;;;;15.67;8.23;;;11.30;99.90;;;;;;5057912;28;20436;-85
2021/09/22 05:26:00;;;;;;;12.47;7.63;;;11.30;99.90;;;;;;5058104;28;20392;-86
2021/09/22 05:28:26;;;;;;;14.20;7.97;;;11.30;99.90;;;;;;5057796;28;20032;-86
2021/09/22 05:30:51;;;;;;;17.77;9.50;;;11.30;99.90;;;;;;5075177;28;20469;-85
2021/09/22 05:33:17;;;;;;;19.77;9.57;;;11.20;99.90;;;;;;5057397;28;20025;-85
2021/09/22 05:35:43;;;;;;;16.90;9.47;;;11.30;99.90;;;;;;5057938;28;20026;-85
2021/09/22 05:38:09;;;;;;;15.97;9.27;;;11.20;99.90;;;;;;5057706;28;20115;-85
2021/09/22 05:40:34;;;;;;;21.20;10.53;;;11.30;99.90;;;;;;5057447;28;20016;-86
2021/09/22 05:43:00;;;;;;;19.90;10.73;;;11.30;99.90;;;;;;5075430;28;20025;-85
2021/09/22 05:45:26;;;;;;;18.00;10.07;;;11.30;99.90;;;;;;5075414;28;20025;-85
2021/09/22 05:47:52;;;;;;;18.37;10.33;;;11.30;99.90;;;;;;5058112;28;20381;-86
2021/09/22 05:50:18;;;;;;;17.37;9.93;;;11.30;99.90;;;;;;5059823;28;20380;-85
2021/09/22 05:52:43;;;;;;;19.47;10.80;;;11.30;99.90;;;;;;5078050;28;20020;-85
2021/09/22 05:55:09;;;;;;;18.33;9.90;;;11.40;99.90;;;;;;5060520;28;20119;-85
2021/09/22 05:57:35;;;;;;;20.13;9.83;;;11.40;99.90;;;;;;5059972;28;20494;-85
2021/09/22 06:00:01;;;;;;;19.83;11.73;;;11.40;99.90;;;;;;5058425;28;20017;-85
2021/09/22 06:02:27;;;;;;;19.60;11.30;;;11.40;99.90;;;;;;5062577;28;20025;-85
2021/09/22 06:04:52;;;;;;;20.10;11.57;;;11.40;99.90;;;;;;5064467;28;20028;-86
2021/09/22 06:07:18;;;;;;;22.10;11.90;;;11.40;99.90;;;;;;5080320;28;20024;-85
2021/09/22 06:09:44;;;;;;;19.47;12.00;;;11.40;99.90;;;;;;5057094;28;20032;-85
2021/09/22 06:12:09;;;;;;;20.87;12.10;;;11.40;99.90;;;;;;5075405;28;20103;-85
2021/09/22 06:14:35;;;;;;;25.17;13.27;;;11.40;99.90;;;;;;5057071;28;20036;-85
2021/09/22 06:17:01;;;;;;;21.33;12.83;;;11.40;99.90;;;;;;5062494;28;20020;-86
2021/09/22 06:19:26;;;;;;;21.53;12.33;;;11.40;99.90;;;;;;5064399;28;20032;-85
2021/09/22 06:21:52;;;;;;;23.40;12.60;;;11.50;99.90;;;;;;5083817;28;20031;-86
2021/09/22 06:24:20;;;;;;;23.30;13.53;;;11.50;99.90;;;;;;5060169;28;20031;-85
2021/09/22 06:26:47;;;;;;;23.77;13.35;;;11.50;99.90;;;;;;5078430;28;20030;-85
2021/09/22 06:29:14;;;;;;;22.13;13.20;;;11.50;99.90;;;;;;5078658;28;20503;-85
2021/09/22 06:31:40;;;;;;;22.47;12.47;;;11.50;99.90;;;;;;5060329;28;20405;-85
2021/09/22 06:34:06;;;;;;;22.00;12.07;;;11.50;99.90;;;;;;5076951;28;20024;-85
2021/09/22 06:36:32;;;;;;;24.13;12.33;;;11.60;99.90;;;;;;5057219;28;20082;-85
2021/09/22 06:38:58;;;;;;;22.17;12.50;;;11.60;99.90;;;;;;5056520;28;20025;-84
2021/09/22 06:41:28;;;;;;;23.40;12.40;;;11.60;99.90;;;;;;5056631;28;20120;-84
2021/09/22 06:43:53;;;;;;;28.73;12.77;;;11.60;99.90;;;;;;5056545;28;20034;-85
2021/09/22 06:46:19;;;;;;;21.10;11.77;;;11.70;99.90;;;;;;5056442;28;20024;-84
2021/09/22 06:48:45;;;;;;;29.50;12.70;;;11.70;99.90;;;;;;5056553;28;20039;-85
2021/09/22 06:51:11;;;;;;;22.43;11.67;;;11.70;99.90;;;;;;5073661;28;20393;-85
2021/09/22 06:53:39;;;;;;;21.90;11.93;;;11.70;99.90;;;;;;5056405;28;20066;-85
2021/09/22 06:56:05;;;;;;;24.13;11.80;;;11.80;99.90;;;;;;5074191;28;20062;-85
2021/09/22 06:58:31;;;;;;;23.40;11.90;;;11.80;99.90;;;;;;5074331;28;20078;-85
2021/09/22 07:00:56;;;;;;;26.40;12.47;;;11.90;99.90;;;;;;5074038;28;20017;-85
2021/09/22 07:03:22;;;;;;;23.53;12.37;;;11.80;99.90;;;;;;5056179;28;20104;-85
2021/09/22 07:05:48;;;;;;;24.00;12.10;;;11.90;99.90;;;;;;5056118;28;20047;-84
2021/09/22 07:08:14;;;;;;;19.57;11.50;;;12.00;99.90;;;;;;5056020;28;20028;-84
2021/09/22 07:10:40;;;;;;;23.20;12.07;;;12.00;99.90;;;;;;5055708;28;20024;-84
2021/09/22 07:13:06;;;;;;;23.83;12.40;;;12.00;99.90;;;;;;5055783;28;20040;-85
2021/09/22 07:15:32;;;;;;;23.13;11.37;;;12.10;99.90;;;;;;5055960;28;20056;-85
2021/09/22 07:17:58;;;;;;;18.70;11.03;;;12.20;99.90;;;;;;5055916;28;20017;-85
2021/09/22 07:20:24;;;;;;;23.50;10.40;;;12.20;99.90;;;;;;5055441;28;20020;-84
2021/09/22 07:22:49;;;;;;;19.87;10.97;;;12.20;99.90;;;;;;5056404;28;20078;-85
2021/09/22 07:25:15;;;;;;;21.67;11.43;;;12.30;99.90;;;;;;5056867;28;20052;-85
2021/09/22 07:27:41;;;;;;;22.43;11.43;;;12.30;99.90;;;;;;5074059;28;20506;-84
2021/09/22 07:30:09;;;;;;;22.37;12.23;;;12.40;99.90;;;;;;5073392;28;20016;-85
2021/09/22 07:32:35;;;;;;;25.47;13.13;;;12.60;99.90;;;;;;5073616;28;20028;-85
2021/09/22 07:35:01;;;;;;;17.80;11.77;;;12.60;99.90;;;;;;5073623;28;20282;-85
2021/09/22 07:37:28;;;;;;;18.20;12.10;;;12.60;99.90;;;;;;5073140;28;20025;-85
2021/09/22 07:39:54;;;;;;;23.43;12.60;;;12.70;99.90;;;;;;5055301;28;20052;-85
2021/09/22 07:42:20;;;;;;;22.77;11.90;;;12.80;99.90;;;;;;5073791;28;20554;-85
2021/09/22 07:44:47;;;;;;;21.02;11.65;;;12.80;99.90;;;;;;5074309;28;20051;-85
2021/09/22 07:47:17;;;;;;;21.15;12.90;;;12.90;99.90;;;;;;5073869;28;20024;-85
2021/09/22 07:49:42;;;;;;;;;;;12.90;99.90;;;;;;5055191;28;20072;-85
2021/09/22 07:52:10;;;;;;;22.67;13.40;;;12.90;99.90;;;;;;5056333;28;19912;-85
2021/09/22 07:54:36;;;;;;;23.58;12.77;;;13.00;99.90;;;;;;5055255;28;20067;-85
2021/09/22 07:57:02;;;;;;;23.67;12.85;;;13.00;99.90;;;;;;5073232;28;20048;-85
2021/09/22 07:59:29;;;;;;;22.80;12.43;;;13.00;99.90;;;;;;5054502;28;20064;-85
2021/09/22 08:01:55;;;;;;;27.35;13.48;;;13.10;99.90;;;;;;5055240;28;20426;-84
2021/09/22 08:04:21;;;;;;;21.52;13.32;;;13.10;99.90;;;;;;5055606;28;20029;-85
2021/09/22 08:06:46;;;;;;;20.65;12.68;;;13.10;99.90;;;;;;5055158;28;20409;-84
2021/09/22 08:09:12;;;;;;;28.58;13.50;;;13.10;99.90;;;;;;5054958;28;20305;-84
2021/09/22 08:11:38;;;;;;;25.45;14.05;;;13.20;99.90;;;;;;5072463;28;20070;-84
2021/09/22 08:14:04;;;;;;;24.00;13.95;;;13.20;99.90;;;;;;5055153;28;20066;-85
2021/09/22 08:16:29;;;;;;;23.58;14.23;;;13.30;99.90;;;;;;5054968;28;20016;-85
2021/09/22 08:18:55;;;;;;;22.40;13.90;;;13.30;99.90;;;;;;5054341;28;20017;-85
2021/09/22 08:21:21;;;;;;;25.65;14.30;;;13.30;99.90;;;;;;5056065;28;20021;-86
2021/09/22 08:23:46;;;;;;;25.55;14.13;;;13.30;99.90;;;;;;5055569;28;20366;-85
2021/09/22 08:26:12;;;;;;;23.52;14.43;;;13.40;99.90;;;;;;5072842;28;20021;-85
2021/09/22 08:28:38;;;;;;;23.67;13.95;;;13.40;99.90;;;;;;5054917;28;20074;-85
2021/09/22 08:31:04;;;;;;;22.25;14.00;;;13.40;99.90;;;;;;5053944;28;20087;-84
2021/09/22 08:33:29;;;;;;;27.40;15.52;;;13.50;99.90;;;;;;5054627;28;20115;-85
2021/09/22 08:35:55;;;;;;;26.55;14.93;;;13.60;99.90;;;;;;5054466;28;20203;-85
2021/09/22 08:38:22;;;;;;;22.63;13.90;;;13.60;99.90;;;;;;5054647;28;20046;-84
2021/09/22 08:40:48;;;;;;;28.73;15.68;;;13.60;99.90;;;;;;5071650;28;20025;-84
2021/09/22 08:43:14;;;;;;;24.85;15.05;;;13.70;99.90;;;;;;5054267;28;20031;-84
2021/09/22 08:45:41;;;;;;;22.90;13.70;;;13.70;99.90;;;;;;5072623;28;20031;-84
2021/09/22 08:48:09;;;;;;;22.75;13.82;;;13.80;99.90;;;;;;5053779;28;20070;-85
2021/09/22 08:50:35;;;;;;;27.13;14.65;;;13.80;99.90;;;;;;5054163;28;20021;-85
2021/09/22 08:53:01;;;;;;;31.50;17.88;;;13.80;99.90;;;;;;5054303;28;20491;-85
2021/09/22 08:55:27;;;;;;;27.00;16.02;;;13.90;99.90;;;;;;5054246;28;20500;-85
2021/09/22 08:57:52;;;;;;;24.85;15.52;;;13.90;99.90;;;;;;5054208;28;20112;-84
2021/09/22 09:00:18;;;;;;;23.73;14.60;;;14.00;99.90;;;;;;5072570;28;20558;-86
2021/09/22 09:02:47;;;;;;;25.25;14.80;;;14.00;99.90;;;;;;5072879;28;20029;-85
2021/09/22 09:05:19;;;;;;;24.92;15.25;;;14.00;99.90;;;;;;5055145;28;20078;-84
2021/09/22 09:07:57;;;;;;;25.60;14.85;;;14.00;99.90;;;;;;5054418;28;20029;-84
2021/09/22 09:10:26;;;;;;;19.55;12.13;;;14.00;99.90;;;;;;5054149;28;20463;-85
2021/09/22 09:13:05;;;;;;;24.42;12.38;;;14.10;99.90;;;;;;5054090;28;20021;-85
2021/09/22 09:15:44;;;;;;;34.42;16.67;;;14.10;99.90;;;;;;5054387;28;20021;-85
2021/09/22 09:18:17;;;;;;;26.58;14.18;;;14.10;99.90;;;;;;5054485;28;20094;-85
2021/09/22 09:20:47;;;;;;;26.52;15.00;;;14.10;99.90;;;;;;5053582;28;20082;-85
2021/09/22 09:23:18;;;;;;;23.95;15.00;;;14.20;99.90;;;;;;5071806;28;20479;-85
2021/09/22 09:26:03;;;;;;;30.70;17.25;;;14.20;99.90;;;;;;5054244;28;20120;-84
2021/09/22 09:28:32;;;;;;;23.65;14.65;;;14.30;99.90;;;;;;5055835;28;20439;-84
2021/09/22 09:31:07;;;;;;;25.17;14.15;;;14.30;99.90;;;;;;5055450;28;20346;-85
2021/09/22 09:33:56;;;;;;;28.88;16.77;;;14.40;99.90;;;;;;5056122;28;20033;-85
2021/09/22 09:36:24;;;;;;;30.70;15.88;;;14.50;99.90;;;;;;5073810;28;20070;-84
2021/09/22 09:39:05;;;;;;;24.83;14.25;;;14.50;99.90;;;;;;5055010;28;20048;-84
2021/09/22 09:41:37;;;;;;;26.55;14.73;;;14.60;99.90;;;;;;5055624;28;20029;-85
2021/09/22 09:44:15;;;;;;;26.00;14.25;;;14.60;99.90;;;;;;5056208;28;20443;-85
2021/09/22 09:46:41;;;;;;;22.77;14.00;;;14.70;99.90;;;;;;5073389;28;20027;-85
2021/09/22 09:49:23;;;;;;;27.67;15.27;;;14.70;99.90;;;;;;5054831;28;20386;-85
2021/09/22 09:51:51;;;;;;;26.77;15.02;;;14.80;99.90;;;;;;5073836;28;20021;-86
2021/09/22 09:54:24;;;;;;;24.48;12.95;;;14.80;99.90;;;;;;5055263;28;20025;-85
2021/09/22 09:56:52;;;;;;;28.33;14.10;;;14.80;99.90;;;;;;5073538;28;20095;-85
2021/09/22 09:59:20;;;;;;;23.60;13.05;;;14.80;99.90;;;;;;5054558;28;20500;-85
2021/09/22 10:01:48;;;;;;;23.60;13.88;;;14.90;99.90;;;;;;5059187;28;20146;-85
2021/09/22 10:04:17;;;;;;;18.87;12.17;;;14.90;99.90;;;;;;5078400;28;20052;-85
2021/09/22 10:06:43;;;;;;;22.08;13.23;;;14.90;99.90;;;;;;5060019;28;20094;-85
2021/09/22 10:09:10;;;;;;;23.00;13.57;;;14.90;99.90;;;;;;5058966;28;20036;-86
2021/09/22 10:11:38;;;;;;;18.35;11.30;;;14.80;99.90;;;;;;5059829;28;20539;-86
2021/09/22 10:14:05;;;;;;;21.17;13.05;;;14.90;99.90;;;;;;5059513;28;20031;-85
2021/09/22 10:16:34;;;;;;;24.00;14.10;;;14.90;99.90;;;;;;5060067;28;20027;-85
2021/09/22 10:19:01;;;;;;;27.35;13.57;;;14.90;99.90;;;;;;5059322;28;20028;-86
2021/09/22 10:21:29;;;;;;;29.65;15.93;;;15.00;99.90;;;;;;5077630;28;20047;-86
2021/09/22 10:23:57;;;;;;;26.98;15.18;;;15.00;99.90;;;;;;5059438;28;20024;-86
2021/09/22 10:26:24;;;;;;;28.55;15.77;;;15.10;99.90;;;;;;5057273;28;20048;-86
2021/09/22 10:28:49;;;;;;;23.05;14.30;;;15.10;99.90;;;;;;5056898;28;20123;-85
2021/09/22 10:31:21;;;;;;;22.90;13.85;;;15.10;99.90;;;;;;5055767;28;20131;-86
2021/09/22 10:33:47;;;;;;;21.48;11.98;;;15.10;99.90;;;;;;5056458;28;20488;-86
2021/09/22 10:36:15;;;;;;;26.83;15.23;;;15.10;99.90;;;;;;5056613;28;20074;-85
2021/09/22 10:38:48;;;;;;;28.02;15.10;;;15.20;99.90;;;;;;5056240;28;20505;-85
2021/09/22 10:41:43;;;;;;;32.22;15.77;;;15.20;99.60;;;;;;5074338;28;20029;-85
2021/09/22 10:44:36;;;;;;;30.05;17.20;;;15.40;99.20;;;;;;5056347;28;20032;-86
2021/09/22 10:47:25;;;;;;;28.33;15.80;;;15.50;99.10;;;;;;5054074;28;20044;-86
2021/09/22 10:49:51;;;;;;;25.35;14.35;;;15.50;98.60;;;;;;5056064;28;20039;-86
2021/09/22 10:52:38;;;;;;;26.25;14.27;;;15.50;98.10;;;;;;5055940;28;20032;-85
2021/09/22 10:55:18;;;;;;;24.73;14.13;;;15.50;98.30;;;;;;5055830;28;20385;-86
2021/09/22 10:57:47;;;;;;;20.85;13.50;;;15.60;98.70;;;;;;5055974;28;20089;-86
2021/09/22 11:00:20;;;;;;;26.85;13.85;;;15.60;98.60;;;;;;5055401;28;20388;-86
2021/09/22 11:02:54;;;;;;;24.20;13.35;;;15.60;98.10;;;;;;5056024;28;20136;-85
2021/09/22 11:05:26;;;;;;;24.33;14.15;;;15.80;97.30;;;;;;5056031;28;20017;-86
2021/09/22 11:08:00;;;;;;;18.88;11.68;;;15.80;96.80;;;;;;5073699;28;20021;-86
2021/09/22 11:10:53;;;;;;;19.80;12.25;;;15.80;96.90;;;;;;5055383;28;20159;-86
2021/09/22 11:13:19;;;;;;;19.83;12.25;;;15.80;97.40;;;;;;5071302;28;20035;-85
2021/09/22 11:15:46;;;;;;;19.30;11.48;;;15.80;96.70;;;;;;5073773;28;20389;-86
2021/09/22 11:18:12;;;;;;;17.58;10.55;;;15.80;96.70;;;;;;5055506;28;20028;-86
2021/09/22 11:20:38;;;;;;;17.55;9.27;;;15.80;96.00;;;;;;5055138;28;20494;-85
2021/09/22 11:23:08;;;;;;;16.20;9.90;;;15.80;95.20;;;;;;5055424;28;20104;-85
2021/09/22 11:25:34;;;;;;;17.83;10.18;;;15.90;95.50;;;;;;5072114;28;20389;-86
2021/09/22 11:28:07;;;;;;;18.90;10.65;;;15.90;95.50;;;;;;5055380;28;20021;-85
2021/09/22 11:30:33;;;;;;;16.63;10.43;;;16.00;95.70;;;;;;5054918;28;20516;-86
2021/09/22 11:32:59;;;;;;;18.95;11.40;;;16.00;95.60;;;;;;5073117;28;20020;-86
2021/09/22 11:35:29;;;;;;;22.13;12.27;;;16.10;95.50;;;;;;5055428;28;20020;-85
2021/09/22 11:37:57;;;;;;;19.85;11.32;;;16.20;95.50;;;;;;5055221;28;20025;-86
2021/09/22 11:40:32;;;;;;;20.35;11.00;;;16.20;95.60;;;;;;5054661;28;20366;-85
2021/09/22 11:43:00;;;;;;;20.02;11.05;;;16.30;95.00;;;;;;5055129;28;20119;-85
2021/09/22 11:45:38;;;;;;;22.40;11.32;;;16.30;95.10;;;;;;5072927;28;20025;-86
2021/09/22 14:23:23;;;;;;;16.90;10.82;;;17.40;93.60;;;;;;5073698;28;20051;-90
2021/09/22 14:25:49;;;;;;;18.00;11.13;;;17.40;94.00;;;;;;5057924;28;20093;-90
2021/09/22 14:28:18;;;;;;;22.55;13.65;;;17.50;93.70;;;;;;5057397;28;20400;-90
2021/09/22 14:30:44;;;;;;;19.75;11.75;;;17.70;93.30;;;;;;5056964;28;20492;-90
2021/09/22 14:33:10;;;;;;;18.25;11.25;;;17.80;93.40;;;;;;5057168;28;20060;-92
2021/09/22 14:35:38;;;;;;;17.08;10.02;;;17.90;92.80;;;;;;5094769;22;20040;-84
2021/09/22 14:38:05;;;;;;;18.30;10.30;;;18.00;92.30;;;;;;5079171;28;20427;-85
2021/09/22 14:40:31;;;;;;;15.00;9.75;;;18.00;92.40;;;;;;5059565;28;20052;-85
2021/09/22 14:42:58;;;;;;;16.42;9.60;;;18.10;92.40;;;;;;5076826;28;20465;-85
2021/09/22 14:45:25;;;;;;;15.98;9.95;;;18.30;92.00;;;;;;5076965;28;20553;-84
2021/09/22 14:47:51;;;;;;;16.25;9.50;;;18.40;92.10;;;;;;5059738;28;20025;-85
2021/09/22 14:50:21;;;;;;;17.95;10.98;;;18.60;91.80;;;;;;5058187;28;20036;-85
2021/09/22 14:52:47;;;;;;;20.20;10.32;;;18.70;91.20;;;;;;5058103;28;20044;-85
2021/09/22 14:55:13;;;;;;;16.80;10.10;;;18.90;90.80;;;;;;5057739;28;20154;-86
2021/09/22 14:57:43;;;;;;;17.88;10.05;;;19.10;90.60;;;;;;5057883;28;20128;-86
2021/09/22 15:00:19;;;;;;;16.05;10.00;;;19.30;90.70;;;;;;5077001;28;20017;-86
2021/09/22 15:02:49;;;;;;;13.70;8.60;;;19.50;89.60;;;;;;5058652;28;20031;-85
2021/09/22 15:05:16;;;;;;;14.43;8.80;;;19.70;88.60;;;;;;5058012;28;20063;-87
2021/09/22 15:07:42;;;;;;;14.35;8.45;;;19.80;87.30;;;;;;5073837;28;20028;-84
2021/09/22 15:10:08;;;;;;;13.40;7.63;;;19.90;87.10;;;;;;5056118;28;20111;-85